createdAt,value
2018-05-03T00:01:53.746Z,5.00
2018-05-03T00:04:20.371Z,5.10
2018-05-03T00:06:46.579Z,5.90
2018-05-03T00:09:12.820Z,4.70
2018-05-03T00:11:39.446Z,5.40
2018-05-03T00:14:05.649Z,5.75
2018-05-03T00:16:31.890Z,4.97
2018-05-03T00:18:58.780Z,5.45
2018-05-03T00:21:25.424Z,5.20
2018-05-03T00:23:52.012Z,4.62
2018-05-03T00:26:18.259Z,4.40
2018-05-03T00:28:44.462Z,5.30
2018-05-03T00:31:10.703Z,5.22
2018-05-03T00:33:36.924Z,4.40
2018-05-03T00:36:03.162Z,5.33
2018-05-03T00:38:29.358Z,3.93
2018-05-03T00:40:55.570Z,4.22
2018-05-03T00:43:21.782Z,4.60
2018-05-03T00:45:48.033Z,4.97
2018-05-03T00:48:14.285Z,4.93
2018-05-03T00:50:40.524Z,5.47
2018-05-03T00:53:06.748Z,4.87
2018-05-03T00:55:33.022Z,4.93
2018-05-03T00:57:59.594Z,4.30
2018-05-03T01:00:25.824Z,4.60
2018-05-03T01:02:52.066Z,4.57
2018-05-03T01:05:18.287Z,5.10
2018-05-03T01:07:44.523Z,4.25
2018-05-03T01:10:10.761Z,4.37
2018-05-03T01:12:37.007Z,4.35
2018-05-03T01:15:03.236Z,4.70
2018-05-03T01:17:29.484Z,4.93
2018-05-03T01:19:56.093Z,5.03
2018-05-03T01:22:22.306Z,5.10
2018-05-03T01:24:48.552Z,5.63
2018-05-03T01:27:14.763Z,4.47
2018-05-03T01:29:41.051Z,4.97
2018-05-03T01:32:07.288Z,5.10
2018-05-03T01:34:33.530Z,4.90
2018-05-03T01:36:59.724Z,4.70
2018-05-03T01:39:26.313Z,5.30
2018-05-03T01:41:52.531Z,5.00
2018-05-03T01:44:19.676Z,5.18
2018-05-03T01:46:45.943Z,4.30
2018-05-03T01:49:12.157Z,4.80
2018-05-03T01:51:38.418Z,4.82
2018-05-03T01:54:05.036Z,4.87
2018-05-03T01:56:31.265Z,4.97
2018-05-03T01:58:57.472Z,4.33
2018-05-03T02:01:23.759Z,4.87
2018-05-03T02:03:49.971Z,5.10
2018-05-03T02:06:16.170Z,5.40
2018-05-03T02:08:42.400Z,4.20
2018-05-03T02:11:08.634Z,4.95
2018-05-03T02:13:35.657Z,4.73
2018-05-03T02:16:01.881Z,4.15
2018-05-03T02:18:28.132Z,4.80
2018-05-03T02:20:54.341Z,4.72
2018-05-03T02:23:20.578Z,5.05
2018-05-03T02:25:46.793Z,4.93
2018-05-03T02:28:13.002Z,5.33
2018-05-03T02:30:39.286Z,5.12
2018-05-03T02:33:05.533Z,4.95
2018-05-03T02:35:31.765Z,4.40
2018-05-03T02:37:57.989Z,5.30
2018-05-03T02:40:24.224Z,5.03
2018-05-03T02:42:50.448Z,5.07
2018-05-03T02:45:16.672Z,5.30
2018-05-03T02:47:42.889Z,5.43
2018-05-03T02:50:09.131Z,5.45
2018-05-03T02:52:35.369Z,5.20
2018-05-03T02:55:01.575Z,5.10
2018-05-03T02:57:46.522Z,5.35
2018-05-03T03:00:31.233Z,5.40
2018-05-03T03:03:15.977Z,4.57
2018-05-03T03:05:54.525Z,5.15
2018-05-03T03:22:19.793Z,5.03
2018-05-03T03:38:38.181Z,5.60
2018-05-03T03:41:16.603Z,5.82
2018-05-03T03:44:05.606Z,5.18
2018-05-03T03:46:31.792Z,6.35
2018-05-03T03:48:58.019Z,5.80
2018-05-03T03:51:24.239Z,6.10
2018-05-03T03:53:50.468Z,6.62
2018-05-03T03:56:16.693Z,7.05
2018-05-03T03:58:42.990Z,6.72
2018-05-03T04:01:09.199Z,6.45
2018-05-03T04:03:35.480Z,6.12
2018-05-03T04:06:01.711Z,6.57
2018-05-03T04:08:27.965Z,5.18
2018-05-03T04:10:54.556Z,5.95
2018-05-03T04:13:20.788Z,6.82
2018-05-03T04:15:47.002Z,6.62
2018-05-03T04:18:25.548Z,6.82
2018-05-03T04:21:13.451Z,6.40
2018-05-03T04:24:06.563Z,5.25
2018-05-03T04:26:33.148Z,7.03
2018-05-03T04:28:59.368Z,6.50
2018-05-03T04:31:25.617Z,6.75
2018-05-03T04:33:51.835Z,6.68
2018-05-03T04:36:18.069Z,6.20
2018-05-03T04:38:44.308Z,6.00
2018-05-03T04:41:10.517Z,6.62
2018-05-03T04:43:36.742Z,6.07
2018-05-03T04:46:03.029Z,6.60
2018-05-03T04:48:29.650Z,6.78
2018-05-03T04:50:55.913Z,6.40
2018-05-03T04:53:22.155Z,7.15
2018-05-03T04:55:48.429Z,6.62
2018-05-03T04:58:14.682Z,6.35
2018-05-03T05:00:41.263Z,6.80
2018-05-03T05:03:07.533Z,7.10
2018-05-03T05:05:34.543Z,7.10
2018-05-03T05:08:00.743Z,6.68
2018-05-03T05:10:27.979Z,6.62
2018-05-03T05:12:54.610Z,6.10
2018-05-03T05:15:21.206Z,6.32
2018-05-03T05:17:47.467Z,6.45
2018-05-03T05:20:13.659Z,6.72
2018-05-03T05:22:39.873Z,6.50
2018-05-03T05:25:06.118Z,6.75
2018-05-03T05:27:32.328Z,6.53
2018-05-03T05:29:58.587Z,6.22
2018-05-03T05:32:24.820Z,6.30
2018-05-03T05:34:51.056Z,6.72
2018-05-03T05:37:17.327Z,6.50
2018-05-03T05:39:43.575Z,6.72
2018-05-03T05:42:10.347Z,6.07
2018-05-03T05:44:36.620Z,5.53
2018-05-03T05:47:02.857Z,5.70
2018-05-03T05:49:29.102Z,5.70
2018-05-03T05:51:55.329Z,6.10
2018-05-03T05:54:21.537Z,5.70
2018-05-03T05:56:47.855Z,5.53
2018-05-03T05:59:14.067Z,5.22
2018-05-03T06:01:40.271Z,6.18
2018-05-03T06:04:06.531Z,6.05
2018-05-03T06:06:32.778Z,5.55
2018-05-03T06:08:59.364Z,5.30
2018-05-03T06:11:25.627Z,5.97
2018-05-03T06:13:52.216Z,5.90
2018-05-03T06:16:18.466Z,5.60
2018-05-03T06:18:44.708Z,5.85
2018-05-03T06:21:10.959Z,6.05
2018-05-03T06:23:37.569Z,5.35
2018-05-03T06:26:03.820Z,5.70
2018-05-03T06:28:30.394Z,6.10
2018-05-03T06:30:56.617Z,5.80
2018-05-03T06:33:22.813Z,5.37
2018-05-03T06:35:49.037Z,6.20
2018-05-03T06:38:15.267Z,5.55
2018-05-03T06:40:41.505Z,5.97
2018-05-03T06:43:07.730Z,6.30
2018-05-03T06:45:33.982Z,5.82
2018-05-03T06:48:00.206Z,5.60
2018-05-03T06:50:26.448Z,6.72
2018-05-03T06:52:52.700Z,6.37
2018-05-03T06:55:18.964Z,5.47
2018-05-03T06:57:45.550Z,6.43
2018-05-03T07:00:11.771Z,6.00
2018-05-03T07:02:37.998Z,5.20
2018-05-03T07:05:04.247Z,5.70
2018-05-03T07:07:30.473Z,5.65
2018-05-03T07:09:56.741Z,6.53
2018-05-03T07:12:22.955Z,6.62
2018-05-03T07:14:49.223Z,6.45
2018-05-03T07:17:15.442Z,5.53
2018-05-03T07:19:41.631Z,5.20
2018-05-03T07:22:07.890Z,6.27
2018-05-03T07:24:34.467Z,5.23
2018-05-03T07:27:00.671Z,6.20
2018-05-03T07:29:26.940Z,5.63
2018-05-03T07:31:53.138Z,6.10
2018-05-03T07:34:19.337Z,6.27
2018-05-03T07:36:45.600Z,7.00
2018-05-03T07:39:11.816Z,5.17
2018-05-03T07:41:38.019Z,4.93
2018-05-03T07:44:04.302Z,5.30
2018-05-03T07:46:30.495Z,4.60
2018-05-03T07:48:56.705Z,3.80
2018-05-03T07:51:22.938Z,5.03
2018-05-03T07:53:49.172Z,4.87
2018-05-03T07:56:15.403Z,6.43
2018-05-03T07:58:41.637Z,5.33
2018-05-03T08:01:07.927Z,4.80
2018-05-03T08:03:34.145Z,5.03
2018-05-03T08:06:00.385Z,4.70
2018-05-03T08:08:26.629Z,4.27
2018-05-03T08:10:53.863Z,5.40
2018-05-03T08:13:21.424Z,4.37
2018-05-03T08:15:51.613Z,4.70
2018-05-03T08:18:17.883Z,5.07
2018-05-03T08:20:44.931Z,4.40
2018-05-03T08:23:11.546Z,5.40
2018-05-03T08:25:37.815Z,4.50
2018-05-03T08:28:05.027Z,4.30
2018-05-03T08:30:31.257Z,4.50
2018-05-03T08:32:57.491Z,4.70
2018-05-03T08:35:23.718Z,4.20
2018-05-03T08:37:49.946Z,4.80
2018-05-03T08:40:16.180Z,5.13
2018-05-03T08:42:42.393Z,4.40
2018-05-03T08:45:08.615Z,3.77
2018-05-03T08:47:34.867Z,4.93
2018-05-03T08:50:01.106Z,4.60
2018-05-03T08:52:27.707Z,4.97
2018-05-03T08:54:53.913Z,4.43
2018-05-03T08:57:20.133Z,6.17
2018-05-03T08:59:46.367Z,5.17
2018-05-03T09:02:12.561Z,5.10
2018-05-03T09:04:38.796Z,4.87
2018-05-03T09:07:05.076Z,5.40
2018-05-03T09:09:31.349Z,5.27
2018-05-03T09:11:57.943Z,5.57
2018-05-03T09:14:24.172Z,5.00
2018-05-03T09:16:50.469Z,5.47
2018-05-03T09:19:16.701Z,5.83
2018-05-03T09:21:42.962Z,5.50
2018-05-03T09:24:09.192Z,5.53
2018-05-03T09:26:35.486Z,4.70
2018-05-03T09:29:01.684Z,5.20
2018-05-03T09:31:28.336Z,5.17
2018-05-03T09:33:54.544Z,4.60
2018-05-03T09:36:21.115Z,5.00
2018-05-03T09:38:47.395Z,5.97
2018-05-03T09:41:14.389Z,5.40
2018-05-03T09:43:40.605Z,4.80
2018-05-03T09:46:06.941Z,4.97
2018-05-03T09:48:33.171Z,4.97
2018-05-03T09:50:59.414Z,5.47
2018-05-03T09:53:25.651Z,5.00
2018-05-03T09:55:51.918Z,5.27
2018-05-03T09:58:18.540Z,5.57
2018-05-03T10:00:44.792Z,6.03
2018-05-03T10:03:11.389Z,4.97
2018-05-03T10:05:37.614Z,6.17
2018-05-03T10:08:03.862Z,5.40
2018-05-03T10:10:30.097Z,5.50
2018-05-03T10:12:56.352Z,6.00
2018-05-03T10:15:22.592Z,5.80
2018-05-03T10:17:48.846Z,6.23
2018-05-03T10:20:15.096Z,5.43
2018-05-03T10:22:41.471Z,5.23
2018-05-03T10:25:07.624Z,4.77
2018-05-03T10:27:33.881Z,5.83
2018-05-03T10:30:00.143Z,6.00
2018-05-03T10:32:26.385Z,5.53
2018-05-03T10:34:53.038Z,5.80
2018-05-03T10:37:19.279Z,5.47
2018-05-03T10:39:45.499Z,4.60
2018-05-03T10:42:11.757Z,4.93
2018-05-03T10:44:38.063Z,5.63
2018-05-03T10:47:04.358Z,5.50
2018-05-03T10:49:30.914Z,5.30
2018-05-03T10:51:57.150Z,4.60
2018-05-03T10:54:23.417Z,5.07
2018-05-03T10:56:49.625Z,5.17
2018-05-03T10:59:15.839Z,5.00
2018-05-03T11:01:42.088Z,5.07
2018-05-03T11:04:08.303Z,5.30
2018-05-03T11:06:35.247Z,5.80
2018-05-03T11:09:01.504Z,4.73
2018-05-03T11:11:27.713Z,5.90
2018-05-03T11:13:53.923Z,5.47
2018-05-03T11:16:20.164Z,5.10
2018-05-03T11:18:46.408Z,5.07
2018-05-03T11:21:12.633Z,5.43
2018-05-03T11:23:38.915Z,5.67
2018-05-03T11:26:05.170Z,5.43
2018-05-03T11:28:32.248Z,5.07
2018-05-03T11:30:58.486Z,5.80
2018-05-03T11:33:25.712Z,4.97
2018-05-03T11:35:51.919Z,4.80
2018-05-03T11:38:18.144Z,5.10
2018-05-03T11:40:44.377Z,4.43
2018-05-03T11:43:10.624Z,5.60
2018-05-03T11:45:36.884Z,5.63
2018-05-03T11:48:03.112Z,5.67
2018-05-03T11:50:29.310Z,5.33
2018-05-03T11:52:55.573Z,5.57
2018-05-03T11:55:22.335Z,5.30
2018-05-03T11:57:48.986Z,5.20
2018-05-03T12:00:15.203Z,4.40
2018-05-03T12:02:41.403Z,5.63
2018-05-03T12:05:07.954Z,6.00
2018-05-03T12:07:34.558Z,5.40
2018-05-03T12:10:00.815Z,5.43
2018-05-03T12:12:27.437Z,6.03
2018-05-03T12:14:53.651Z,5.80
2018-05-03T12:17:19.900Z,5.63
2018-05-03T12:19:46.143Z,6.37
2018-05-03T12:22:13.322Z,6.93
2018-05-03T12:24:40.532Z,6.37
2018-05-03T12:27:06.771Z,5.90
2018-05-03T12:29:33.033Z,5.60
2018-05-03T12:31:59.266Z,6.00
2018-05-03T12:34:25.574Z,6.00
2018-05-03T12:36:51.814Z,6.20
2018-05-03T12:39:18.049Z,6.50
2018-05-03T12:41:44.251Z,5.30
2018-05-03T12:44:10.541Z,6.20
2018-05-03T12:46:36.810Z,5.80
2018-05-03T12:49:03.141Z,5.70
2018-05-03T12:51:29.715Z,6.07
2018-05-03T12:53:55.957Z,6.70
2018-05-03T12:56:22.229Z,6.07
2018-05-03T12:58:48.800Z,6.50
2018-05-03T13:01:15.039Z,6.20
2018-05-03T13:03:41.276Z,5.63
2018-05-03T13:06:07.498Z,6.43
2018-05-03T13:08:33.743Z,5.80
2018-05-03T13:10:59.976Z,5.57
2018-05-03T13:13:26.184Z,5.93
2018-05-03T13:15:52.433Z,5.80
2018-05-03T13:18:18.669Z,7.00
2018-05-03T13:20:44.926Z,6.60
2018-05-03T13:23:11.177Z,6.47
2018-05-03T13:25:37.440Z,7.10
2018-05-03T13:28:03.762Z,6.87
2018-05-03T13:30:29.979Z,6.27
2018-05-03T13:32:56.201Z,6.53
2018-05-03T13:35:22.428Z,6.53
2018-05-03T13:37:48.692Z,6.93
2018-05-03T13:40:14.919Z,6.63
2018-05-03T13:42:41.129Z,7.87
2018-05-03T13:45:07.420Z,6.93
2018-05-03T13:47:33.672Z,6.10
2018-05-03T13:49:59.886Z,7.60
2018-05-03T13:52:26.125Z,7.40
2018-05-03T13:54:52.382Z,7.50
2018-05-03T13:57:18.632Z,6.27
2018-05-03T13:59:44.875Z,7.10
2018-05-03T14:02:11.078Z,7.03
2018-05-03T14:04:37.657Z,7.03
2018-05-03T14:07:03.959Z,6.43
2018-05-03T14:09:30.175Z,7.57
2018-05-03T14:11:56.415Z,7.03
2018-05-03T14:14:23.224Z,7.00
2018-05-03T14:16:49.423Z,6.47
2018-05-03T14:19:15.739Z,6.87
2018-05-03T14:21:41.968Z,6.33
2018-05-03T14:24:10.059Z,7.27
2018-05-03T14:26:36.312Z,6.70
2018-05-03T14:29:02.562Z,6.97
2018-05-03T14:31:28.805Z,6.43
2018-05-03T14:33:55.423Z,6.43
2018-05-03T14:36:21.706Z,7.07
2018-05-03T14:38:47.926Z,6.73
2018-05-03T14:41:14.208Z,7.50
2018-05-03T14:43:40.424Z,6.73
2018-05-03T14:46:06.680Z,6.63
2018-05-03T14:48:32.960Z,7.60
2018-05-03T14:51:00.066Z,7.47
2018-05-03T14:53:26.652Z,7.20
2018-05-03T14:55:52.942Z,7.40
2018-05-03T14:58:19.158Z,6.93
2018-05-03T15:00:45.730Z,8.80
2018-05-03T15:03:11.986Z,8.40
2018-05-03T15:05:38.846Z,6.93
2018-05-03T15:08:05.203Z,6.70
2018-05-03T15:10:31.517Z,7.17
2018-05-03T15:12:57.696Z,8.40
2018-05-03T15:15:23.924Z,8.37
2018-05-03T15:17:50.427Z,8.40
2018-05-03T15:20:17.168Z,8.73
2018-05-03T15:22:43.385Z,7.20
2018-05-03T15:25:09.667Z,6.93
2018-05-03T15:27:35.928Z,7.23
2018-05-03T15:30:02.614Z,7.03
2018-05-03T15:32:28.918Z,7.00
2018-05-03T15:34:55.751Z,7.10
2018-05-03T15:37:22.012Z,8.33
2018-05-03T15:39:49.128Z,9.07
2018-05-03T15:42:15.739Z,8.73
2018-05-03T15:44:42.061Z,8.40
2018-05-03T15:47:08.184Z,7.70
2018-05-03T15:49:34.431Z,9.70
2018-05-03T15:52:00.645Z,8.87
2018-05-03T15:54:26.893Z,7.37
2018-05-03T15:56:53.174Z,7.77
2018-05-03T15:59:19.387Z,7.77
2018-05-03T16:01:45.603Z,7.40
2018-05-03T16:04:11.883Z,6.90
2018-05-03T16:06:38.185Z,6.87
2018-05-03T16:09:05.228Z,7.67
2018-05-03T16:11:31.470Z,7.23
2018-05-03T16:13:57.697Z,7.07
2018-05-03T16:16:23.971Z,7.23
2018-05-03T16:18:50.258Z,7.53
2018-05-03T16:21:16.639Z,6.63
2018-05-03T16:23:43.205Z,7.17
2018-05-03T16:26:09.473Z,7.17
2018-05-03T16:28:35.752Z,7.90
2018-05-03T16:31:02.013Z,6.47
2018-05-03T16:33:28.288Z,7.33
2018-05-03T16:35:54.593Z,6.90
2018-05-03T16:38:20.805Z,7.40
2018-05-03T16:40:47.102Z,8.03
2018-05-03T16:43:13.700Z,6.77
2018-05-03T16:45:39.917Z,7.30
2018-05-03T16:48:06.191Z,6.97
2018-05-03T16:50:32.436Z,7.60
2018-05-03T16:52:58.673Z,6.87
2018-05-03T16:55:25.652Z,8.00
2018-05-03T16:57:51.939Z,6.63
2018-05-03T17:00:18.183Z,7.80
2018-05-03T17:02:44.447Z,6.33
2018-05-03T17:05:10.806Z,7.00
2018-05-03T17:07:37.064Z,6.83
2018-05-03T17:10:04.654Z,7.00
2018-05-03T17:12:30.954Z,7.20
2018-05-03T17:14:57.247Z,6.20
2018-05-03T17:17:23.901Z,6.60
2018-05-03T17:19:50.129Z,6.57
2018-05-03T17:22:16.368Z,6.77
2018-05-03T17:24:42.597Z,6.57
2018-05-03T17:27:08.823Z,6.87
2018-05-03T17:29:35.062Z,6.30
2018-05-03T17:32:01.318Z,5.83
2018-05-03T17:34:27.583Z,6.37
2018-05-03T17:36:53.812Z,6.80
2018-05-03T17:39:20.872Z,6.97
2018-05-03T17:41:47.165Z,6.60
2018-05-03T17:44:13.403Z,6.33
2018-05-03T17:46:40.057Z,6.90
2018-05-03T17:49:06.684Z,6.80
2018-05-03T17:51:33.830Z,6.27
2018-05-03T17:54:00.098Z,5.90
2018-05-03T17:56:26.389Z,6.90
2018-05-03T17:58:52.629Z,7.40
2018-05-03T18:01:20.138Z,6.30
2018-05-03T18:03:46.387Z,6.57
2018-05-03T18:06:12.634Z,6.20
2018-05-03T18:08:38.930Z,7.13
2018-05-03T18:11:05.218Z,6.60
2018-05-03T18:13:31.509Z,7.60
2018-05-03T18:18:48.270Z,7.27
2018-05-03T18:21:15.251Z,7.60
2018-05-03T18:23:41.529Z,8.10
2018-05-03T18:26:08.219Z,7.77
2018-05-03T18:28:34.531Z,8.00
2018-05-03T18:31:00.852Z,7.90
2018-05-03T18:33:27.098Z,7.50
2018-05-03T18:35:53.367Z,8.30
2018-05-03T18:38:19.763Z,8.17
2018-05-03T18:40:46.010Z,8.77
2018-05-03T18:43:12.291Z,8.20
2018-05-03T18:45:38.582Z,8.93
2018-05-03T18:48:04.843Z,9.13
2018-05-03T18:50:31.137Z,7.40
2018-05-03T18:52:57.389Z,7.93
2018-05-03T18:55:23.616Z,8.17
2018-05-03T18:57:49.918Z,8.13
2018-05-03T19:00:16.180Z,8.27
2018-05-03T19:02:42.873Z,8.07
2018-05-03T19:05:09.106Z,8.47
2018-05-03T19:07:35.403Z,7.80
2018-05-03T19:10:01.679Z,7.10
2018-05-03T19:12:27.937Z,9.13
2018-05-03T19:14:54.580Z,9.30
2018-05-03T19:17:20.854Z,8.33
2018-05-03T19:19:47.205Z,9.57
2018-05-03T19:22:13.461Z,8.90
2018-05-03T19:24:40.133Z,8.53
2018-05-03T19:27:06.368Z,9.30
2018-05-03T19:29:32.644Z,8.53
2018-05-03T19:31:58.975Z,8.40
2018-05-03T19:34:25.210Z,8.70
2018-05-03T19:36:51.460Z,7.50
2018-05-03T19:39:17.726Z,7.90
2018-05-03T19:41:44.001Z,8.60
2018-05-03T19:44:10.640Z,8.17
2018-05-03T19:46:36.936Z,7.90
2018-05-03T19:49:03.239Z,8.70
2018-05-03T19:51:29.477Z,8.70
2018-05-03T19:53:55.805Z,8.40
2018-05-03T19:56:22.047Z,7.67
2018-05-03T19:58:48.289Z,7.80
2018-05-03T20:01:14.582Z,7.50
2018-05-03T20:03:40.850Z,8.17
2018-05-03T20:06:07.078Z,8.20
2018-05-03T20:08:34.349Z,8.07
2018-05-03T20:11:00.586Z,7.90
2018-05-03T20:13:29.852Z,8.80
2018-05-03T20:15:56.175Z,8.73
2018-05-03T20:18:22.514Z,8.17
2018-05-03T20:20:48.751Z,7.40
2018-05-03T20:23:15.050Z,7.60
2018-05-03T20:25:41.307Z,7.57
2018-05-03T20:28:07.555Z,7.60
2018-05-03T20:30:34.186Z,7.20
2018-05-03T20:33:00.816Z,7.30
2018-05-03T20:35:27.050Z,7.77
2018-05-03T20:37:53.647Z,7.87
2018-05-03T20:40:19.923Z,8.17
2018-05-03T20:42:46.600Z,8.27
2018-05-03T20:45:12.890Z,7.23
2018-05-03T20:47:39.177Z,7.57
2018-05-03T20:50:05.444Z,8.17
2018-05-03T20:52:32.025Z,7.10
2018-05-03T20:54:58.260Z,7.77
2018-05-03T20:57:24.516Z,7.37
2018-05-03T20:59:50.756Z,7.37
2018-05-03T21:02:16.976Z,7.13
2018-05-03T21:04:43.217Z,6.83
2018-05-03T21:07:09.949Z,7.83
2018-05-03T21:09:36.138Z,7.30
2018-05-03T21:12:02.434Z,7.43
2018-05-03T21:14:28.677Z,7.37
2018-05-03T21:16:54.980Z,8.47
2018-05-03T21:19:21.729Z,8.13
2018-05-03T21:21:48.925Z,7.67
2018-05-03T21:24:15.136Z,7.83
2018-05-03T21:26:41.361Z,7.57
2018-05-03T21:29:07.616Z,8.10
2018-05-03T21:31:33.851Z,7.07
2018-05-03T21:34:00.049Z,7.40
2018-05-03T21:36:26.353Z,7.70
2018-05-03T21:38:52.572Z,7.97
2018-05-03T21:41:19.211Z,7.77
2018-05-03T21:43:45.475Z,7.77
2018-05-03T21:46:11.744Z,8.20
2018-05-03T21:48:38.001Z,7.17
2018-05-03T21:51:04.612Z,7.73
2018-05-03T21:53:30.841Z,7.47
2018-05-03T21:55:57.819Z,7.40
2018-05-03T21:58:24.064Z,7.30
2018-05-03T22:00:50.883Z,8.27
2018-05-03T22:03:17.203Z,9.20
2018-05-03T22:05:43.406Z,8.63
2018-05-03T22:08:10.535Z,8.57
2018-05-03T22:10:36.796Z,8.63
2018-05-03T22:13:03.012Z,8.03
2018-05-03T22:15:29.264Z,8.10
2018-05-03T22:17:55.539Z,9.60
2018-05-03T22:20:21.787Z,8.27
2018-05-03T22:22:48.024Z,8.97
2018-05-03T22:25:14.275Z,8.90
2018-05-03T22:27:40.884Z,7.90
2018-05-03T22:30:07.154Z,9.10
2018-05-03T22:32:33.784Z,8.27
2018-05-03T22:35:00.395Z,8.30
2018-05-03T22:37:26.654Z,10.30
2018-05-03T22:39:53.248Z,9.87
2018-05-03T22:42:19.488Z,8.37
2018-05-03T22:44:45.711Z,9.93
2018-05-03T22:47:11.957Z,10.10
2018-05-03T22:49:38.222Z,10.60
2018-05-03T22:52:04.491Z,11.10
2018-05-03T22:54:30.687Z,11.03
2018-05-03T22:56:56.915Z,10.13
2018-05-03T22:59:23.145Z,11.30
2018-05-03T23:01:49.413Z,11.60
2018-05-03T23:04:15.618Z,10.90
2018-05-03T23:06:41.832Z,10.67
2018-05-03T23:09:08.063Z,12.00
2018-05-03T23:11:34.319Z,11.40
2018-05-03T23:14:00.572Z,12.37
2018-05-03T23:16:27.171Z,12.17
2018-05-03T23:18:54.251Z,13.00
2018-05-03T23:21:20.496Z,13.00
2018-05-03T23:23:46.729Z,12.00
2018-05-03T23:26:12.975Z,13.23
2018-05-03T23:28:39.176Z,12.10
2018-05-03T23:31:05.413Z,12.90
2018-05-03T23:33:31.669Z,12.57
2018-05-03T23:35:57.898Z,13.23
2018-05-03T23:38:24.168Z,14.53
2018-05-03T23:40:50.397Z,12.40
2018-05-03T23:43:16.620Z,14.83
2018-05-03T23:45:42.888Z,13.97
2018-05-03T23:48:09.104Z,13.20
2018-05-03T23:50:35.747Z,14.63
2018-05-03T23:53:02.009Z,15.30
2018-05-03T23:55:28.248Z,14.60
2018-05-03T23:57:54.460Z,14.10
